Time;durP1;ratioP1;P1;durP2;ratioP2;P2;SDS_P1;SDS_P2;PMS_P1;PMS_P2;Temp;Humidity;BMP_temperature;BMP_pressure;BME280_temperature;BME280_humidity;BME280_pressure;Samples;Min_cycle;Max_cycle;Signal;HPM_P1;HPM_P2
2024/03/09 00:00:23;;;;;;;3.08;1.30;;;14.80;48.50;;;;;;4972959;28;20134;-71
2024/03/09 00:02:50;;;;;;;4.18;1.58;;;14.80;48.20;;;;;;4973173;28;20118;-71
2024/03/09 00:05:20;;;;;;;2.47;1.33;;;14.80;48.50;;;;;;4973223;28;20042;-72
2024/03/09 00:07:47;;;;;;;4.10;1.23;;;14.80;49.40;;;;;;4973278;28;20038;-72
2024/03/09 00:10:14;;;;;;;4.40;1.23;;;14.80;48.10;;;;;;4973522;28;20027;-71
2024/03/09 00:12:43;;;;;;;3.38;1.55;;;14.80;48.30;;;;;;4972984;28;20090;-72
2024/03/09 00:15:12;;;;;;;3.20;1.20;;;14.80;49.40;;;;;;4972904;28;20035;-71
2024/03/09 00:17:41;;;;;;;3.88;1.20;;;14.80;48.30;;;;;;4972959;28;20784;-71
2024/03/09 00:20:56;;;;;;;2.97;1.20;;;14.80;48.70;;;;;;4972794;28;20582;-71
2024/03/09 00:22:57;;;;;;;3.58;0.93;;;14.80;48.60;;;;;;4955921;28;20035;-72
2024/03/09 00:25:23;;;;;;;6.45;1.23;;;14.80;48.90;;;;;;4973029;28;20106;-71
2024/03/09 00:27:49;;;;;;;3.15;1.33;;;14.80;48.70;;;;;;4972888;28;20070;-71
2024/03/09 00:30:19;;;;;;;3.05;1.20;;;14.80;48.90;;;;;;4972874;28;20074;-73
2024/03/09 00:32:47;;;;;;;4.72;1.30;;;14.70;48.70;;;;;;4972371;28;20035;-72
2024/03/09 00:35:13;;;;;;;3.95;1.35;;;14.80;48.50;;;;;;4975199;28;20041;-72
2024/03/09 00:37:40;;;;;;;6.97;1.30;;;14.70;48.70;;;;;;4976295;28;20023;-71
2024/03/09 00:40:08;;;;;;;4.97;1.40;;;14.70;49.10;;;;;;4976417;28;20423;-71
2024/03/09 00:42:37;;;;;;;13.88;1.77;;;14.70;50.40;;;;;;4976253;28;20047;-71
2024/03/09 00:45:08;;;;;;;4.13;1.15;;;14.70;52.40;;;;;;4976204;28;20063;-73
2024/03/09 00:47:35;;;;;;;3.17;1.20;;;14.60;54.10;;;;;;4976782;28;20038;-70
2024/03/09 00:50:11;;;;;;;3.25;1.33;;;14.50;55.40;;;;;;4976167;28;20050;-71
2024/03/09 00:52:37;;;;;;;5.03;1.63;;;14.50;55.90;;;;;;4976506;28;20047;-72
2024/03/09 00:55:10;;;;;;;4.30;1.65;;;14.40;56.50;;;;;;4976307;28;20427;-71
2024/03/09 00:57:44;;;;;;;3.60;1.27;;;14.40;56.70;;;;;;4976172;28;20027;-72
2024/03/09 01:00:11;;;;;;;4.30;1.50;;;14.40;57.00;;;;;;4975956;28;20031;-72
2024/03/09 01:02:43;;;;;;;4.72;1.60;;;14.40;57.50;;;;;;4975995;28;20034;-71
2024/03/09 01:05:09;;;;;;;4.00;1.30;;;14.30;57.60;;;;;;4975696;28;20035;-73
2024/03/09 01:07:37;;;;;;;2.65;1.20;;;14.30;58.10;;;;;;4975977;28;20035;-72
2024/03/09 01:10:03;;;;;;;5.07;1.40;;;14.30;58.70;;;;;;4975744;28;20039;-72
2024/03/09 01:12:29;;;;;;;4.03;1.30;;;14.30;59.20;;;;;;4975551;28;20514;-71
2024/03/09 01:14:55;;;;;;;4.45;1.50;;;14.30;60.00;;;;;;4975298;28;20047;-71
2024/03/09 01:17:21;;;;;;;4.15;1.50;;;14.30;60.00;;;;;;4975722;28;20042;-73
2024/03/09 01:19:47;;;;;;;3.25;1.27;;;14.30;60.90;;;;;;4975580;28;20023;-71
2024/03/09 01:22:13;;;;;;;3.65;1.60;;;14.30;61.90;;;;;;4958262;28;20098;-71
2024/03/09 01:24:39;;;;;;;5.38;1.77;;;14.30;62.30;;;;;;4975324;28;20030;-71
2024/03/09 01:27:05;;;;;;;3.80;1.77;;;14.30;62.70;;;;;;4975449;28;20387;-71
2024/03/09 01:29:32;;;;;;;6.10;2.00;;;14.30;63.20;;;;;;4975326;28;20165;-71
2024/03/09 01:32:01;;;;;;;5.22;1.70;;;14.30;63.60;;;;;;4975417;28;20043;-71
2024/03/09 01:34:27;;;;;;;7.43;1.90;;;14.30;64.20;;;;;;4975268;28;20074;-71
2024/03/09 01:36:54;;;;;;;4.18;1.63;;;14.30;64.80;;;;;;4975201;28;20065;-72
2024/03/09 01:39:19;;;;;;;4.63;1.90;;;14.40;65.50;;;;;;4975158;28;20043;-72
2024/03/09 01:41:45;;;;;;;5.95;2.17;;;14.40;65.70;;;;;;4975258;28;20396;-72
2024/03/09 01:44:11;;;;;;;5.95;1.70;;;14.40;66.30;;;;;;4975143;28;20026;-72
2024/03/09 01:46:37;;;;;;;6.22;1.90;;;14.40;67.10;;;;;;4974788;28;20069;-72
2024/03/09 01:49:04;;;;;;;6.13;2.00;;;14.40;67.10;;;;;;4974909;28;20046;-70
2024/03/09 01:51:30;;;;;;;6.47;2.15;;;14.40;67.50;;;;;;4975091;28;20039;-71
2024/03/09 01:53:56;;;;;;;8.00;2.38;;;14.50;68.10;;;;;;4974705;28;20050;-72
2024/03/09 01:56:22;;;;;;;9.20;2.40;;;14.50;69.30;;;;;;4974899;28;20510;-71
2024/03/09 01:58:48;;;;;;;6.90;2.42;;;14.50;70.00;;;;;;4974995;28;20038;-72
2024/03/09 02:01:25;;;;;;;8.35;2.25;;;14.40;71.60;;;;;;4974850;28;20503;-71
2024/03/09 02:03:53;;;;;;;6.25;2.22;;;14.40;72.40;;;;;;4974523;28;20049;-72
2024/03/09 02:06:31;;;;;;;8.48;2.85;;;14.40;72.50;;;;;;4974743;28;20031;-72
2024/03/09 02:08:57;;;;;;;9.88;2.70;;;14.40;73.30;;;;;;4974736;28;20089;-71
2024/03/09 02:11:23;;;;;;;6.78;2.78;;;14.30;73.70;;;;;;4974889;28;20499;-73
2024/03/09 02:13:50;;;;;;;7.05;2.88;;;14.30;73.70;;;;;;4957512;28;20487;-71
2024/03/09 02:16:17;;;;;;;7.78;2.55;;;14.30;74.20;;;;;;4957173;28;20035;-72
2024/03/09 02:18:48;;;;;;;9.35;2.70;;;14.30;75.10;;;;;;4957062;28;20089;-72
2024/03/09 02:21:14;;;;;;;10.65;3.15;;;14.20;76.10;;;;;;4974268;28;20445;-73
2024/03/09 02:23:42;;;;;;;6.82;2.67;;;14.20;76.30;;;;;;4956894;28;20399;-71
2024/03/09 02:26:08;;;;;;;9.70;3.25;;;14.20;77.00;;;;;;4974207;28;20042;-72
2024/03/09 02:28:34;;;;;;;7.22;3.33;;;14.20;77.10;;;;;;4974454;28;20062;-72
2024/03/09 02:31:01;;;;;;;11.52;3.67;;;14.20;78.00;;;;;;4974536;28;20447;-71
2024/03/09 02:33:27;;;;;;;7.32;3.10;;;14.20;78.20;;;;;;4974230;28;20047;-71
2024/03/09 02:35:54;;;;;;;7.63;2.92;;;14.20;78.70;;;;;;4974264;28;20040;-71
2024/03/09 02:38:20;;;;;;;8.90;3.08;;;14.20;79.00;;;;;;4974203;28;20067;-71
2024/03/09 02:40:47;;;;;;;5.95;2.95;;;14.20;78.70;;;;;;4973880;28;20110;-71
2024/03/09 02:43:13;;;;;;;7.55;2.95;;;14.20;79.00;;;;;;4973730;28;20494;-72
2024/03/09 02:45:39;;;;;;;8.70;3.17;;;14.20;78.90;;;;;;4973871;28;20057;-72
2024/03/09 02:48:06;;;;;;;8.48;3.60;;;14.20;79.20;;;;;;4973607;28;20041;-71
2024/03/09 02:50:32;;;;;;;7.53;3.05;;;14.20;79.20;;;;;;4973622;28;20050;-72
2024/03/09 02:53:00;;;;;;;9.48;3.15;;;14.20;79.50;;;;;;4973832;28;20388;-71
2024/03/09 02:55:26;;;;;;;8.20;3.17;;;14.20;79.80;;;;;;4973782;28;20042;-72
2024/03/09 02:57:53;;;;;;;6.30;3.70;;;14.20;79.80;;;;;;4972981;28;20065;-71
2024/03/09 03:00:26;;;;;;;7.72;2.80;;;14.20;79.90;;;;;;4973599;28;20037;-71
2024/03/09 03:05:42;;;;;;;8.70;3.47;;;14.10;80.60;;;;;;4973515;28;20041;-72
2024/03/09 03:08:07;;;;;;;8.65;3.50;;;14.10;80.40;;;;;;4973465;28;20030;-72
2024/03/09 03:10:33;;;;;;;10.02;3.38;;;14.00;80.50;;;;;;4973639;28;20054;-71
2024/03/09 03:12:59;;;;;;;8.95;3.60;;;13.90;80.80;;;;;;4955637;28;20046;-72
2024/03/09 03:15:25;;;;;;;6.25;2.85;;;13.70;80.90;;;;;;4973106;28;20055;-71
2024/03/09 03:17:51;;;;;;;6.38;3.70;;;13.60;80.90;;;;;;4973525;28;20039;-71
2024/03/09 03:20:18;;;;;;;11.02;3.92;;;13.50;81.60;;;;;;4973416;28;20410;-71
2024/03/09 03:22:48;;;;;;;7.45;3.75;;;13.50;81.50;;;;;;4973320;28;20105;-71
2024/03/09 03:25:14;;;;;;;8.35;3.72;;;13.50;82.50;;;;;;4973316;28;20037;-71
2024/03/09 03:27:41;;;;;;;6.40;3.50;;;13.50;82.50;;;;;;4973162;28;20542;-72
2024/03/09 03:30:12;;;;;;;7.85;3.50;;;13.30;83.50;;;;;;4973292;28;20118;-72
2024/03/09 03:32:38;;;;;;;9.32;3.63;;;13.30;83.70;;;;;;4973556;28;20037;-73
2024/03/09 03:35:07;;;;;;;6.90;3.30;;;13.10;83.80;;;;;;4973197;28;20050;-71
2024/03/09 03:37:33;;;;;;;7.55;3.55;;;13.00;83.90;;;;;;4973451;28;20031;-71
2024/03/09 03:39:59;;;;;;;7.72;3.78;;;13.00;83.80;;;;;;4973332;28;20037;-71
2024/03/09 03:42:26;;;;;;;9.07;3.60;;;13.00;84.50;;;;;;4973470;28;20059;-72
2024/03/09 03:44:51;;;;;;;8.43;3.38;;;13.00;84.70;;;;;;4973535;28;20459;-71
2024/03/09 03:47:18;;;;;;;10.25;4.13;;;13.10;84.70;;;;;;4973218;28;20038;-72
2024/03/09 03:49:46;;;;;;;8.73;3.70;;;13.20;85.20;;;;;;4964349;28;20053;-72
2024/03/09 03:52:13;;;;;;;8.10;3.85;;;13.30;84.80;;;;;;4992750;28;20438;-71
2024/03/09 03:54:39;;;;;;;7.15;3.60;;;13.40;84.80;;;;;;4992309;28;20042;-72
2024/03/09 03:57:05;;;;;;;9.52;3.90;;;13.50;85.40;;;;;;4992389;28;20101;-71
2024/03/09 03:59:34;;;;;;;9.50;2.85;;;13.50;85.40;;;;;;4992506;28;20069;-71
2024/03/09 04:02:00;;;;;;;5.38;2.80;;;13.60;85.90;;;;;;4974930;28;20027;-70
2024/03/09 04:04:27;;;;;;;10.77;3.45;;;13.70;86.10;;;;;;4992448;28;20082;-72
2024/03/09 04:06:53;;;;;;;9.95;3.17;;;13.70;86.10;;;;;;4992383;28;20031;-71
2024/03/09 04:09:20;;;;;;;9.13;3.05;;;13.80;86.50;;;;;;4995021;28;20038;-72
2024/03/09 04:11:49;;;;;;;8.48;2.83;;;13.80;86.60;;;;;;4996219;28;20394;-71
2024/03/09 04:14:17;;;;;;;6.18;2.58;;;13.90;87.20;;;;;;4996142;28;20054;-72
2024/03/09 04:16:42;;;;;;;9.50;2.90;;;13.90;87.20;;;;;;4993165;23;20409;-71
2024/03/09 04:19:09;;;;;;;8.05;2.75;;;13.90;87.20;;;;;;4976598;28;20105;-71
2024/03/09 04:21:35;;;;;;;7.50;2.60;;;14.00;87.60;;;;;;4976845;28;20031;-72
2024/03/09 04:24:01;;;;;;;10.50;2.90;;;14.00;87.50;;;;;;4976565;28;20097;-71
2024/03/09 04:26:28;;;;;;;10.23;3.03;;;14.00;87.60;;;;;;4976664;28;20122;-72
2024/03/09 04:28:54;;;;;;;7.47;2.60;;;14.00;87.70;;;;;;4976772;28;20038;-71
2024/03/09 04:31:20;;;;;;;6.18;2.78;;;14.00;87.90;;;;;;4976615;28;20030;-71
2024/03/09 04:33:46;;;;;;;9.13;2.70;;;14.00;88.00;;;;;;4976384;28;20042;-71
2024/03/09 04:36:12;;;;;;;7.25;2.85;;;14.00;88.10;;;;;;4976254;28;20045;-71
2024/03/09 04:38:38;;;;;;;6.13;2.63;;;14.00;88.00;;;;;;4975934;28;20047;-72
2024/03/09 04:41:04;;;;;;;7.35;2.88;;;14.00;88.40;;;;;;4976586;28;20101;-73
2024/03/09 04:43:37;;;;;;;8.55;3.28;;;14.10;88.50;;;;;;4976304;28;20074;-72
2024/03/09 04:46:04;;;;;;;8.32;3.13;;;14.10;88.50;;;;;;4976070;28;20031;-72
2024/03/09 04:48:30;;;;;;;7.93;3.00;;;14.10;88.60;;;;;;4976015;28;20034;-72
2024/03/09 04:50:55;;;;;;;7.97;3.00;;;14.10;89.00;;;;;;4958723;28;20035;-73
2024/03/09 04:53:21;;;;;;;9.95;3.42;;;14.10;89.20;;;;;;4976052;28;20066;-72
2024/03/09 04:55:51;;;;;;;7.13;3.05;;;14.10;89.20;;;;;;4976206;28;20372;-71
2024/03/09 04:58:21;;;;;;;7.40;2.80;;;14.10;89.00;;;;;;4976404;28;20030;-71
2024/03/09 05:00:47;;;;;;;10.48;3.20;;;14.10;89.30;;;;;;4975882;28;20062;-71
2024/03/09 05:03:13;;;;;;;7.10;3.05;;;14.20;89.50;;;;;;4975803;28;20058;-71
2024/03/09 05:05:40;;;;;;;11.30;3.22;;;14.20;89.80;;;;;;4975568;28;20039;-72
2024/03/09 05:08:06;;;;;;;9.52;2.85;;;14.20;89.80;;;;;;4975526;28;20110;-71
2024/03/09 05:10:32;;;;;;;8.77;3.22;;;14.20;90.00;;;;;;4975915;28;20038;-71
2024/03/09 05:12:58;;;;;;;8.98;3.30;;;14.20;90.10;;;;;;4975821;28;20041;-72
2024/03/09 05:15:30;;;;;;;9.32;3.42;;;14.20;90.00;;;;;;4975851;28;20058;-71
2024/03/09 05:17:58;;;;;;;10.85;3.53;;;14.20;90.20;;;;;;4975433;28;20125;-70
2024/03/09 05:20:25;;;;;;;9.27;3.60;;;14.20;90.20;;;;;;4975198;28;20023;-72
2024/03/09 05:22:59;;;;;;;10.32;3.50;;;14.20;90.30;;;;;;4975868;28;20035;-72
2024/03/09 05:25:26;;;;;;;14.38;3.97;;;14.20;90.40;;;;;;4975748;28;20042;-72
2024/03/09 05:27:53;;;;;;;12.50;3.13;;;14.20;90.40;;;;;;4958195;28;20110;-72
2024/03/09 05:30:27;;;;;;;12.27;3.80;;;14.20;90.50;;;;;;4975565;28;20506;-71
2024/03/09 05:32:53;;;;;;;10.02;3.58;;;14.20;90.70;;;;;;4975312;28;20041;-72
2024/03/09 05:35:20;;;;;;;12.02;4.43;;;14.10;90.70;;;;;;4975509;28;20043;-71
2024/03/09 05:37:49;;;;;;;9.85;3.33;;;14.10;90.90;;;;;;4957921;28;20070;-72
2024/03/09 05:40:16;;;;;;;10.98;3.45;;;14.00;91.10;;;;;;4975179;28;20160;-71
2024/03/09 05:42:43;;;;;;;7.80;3.95;;;14.00;91.30;;;;;;4975260;28;20483;-72
2024/03/09 05:45:15;;;;;;;8.82;4.13;;;13.80;91.20;;;;;;4974955;28;20035;-71
2024/03/09 05:47:46;;;;;;;8.63;4.05;;;13.60;91.00;;;;;;4974935;28;20503;-70
2024/03/09 05:50:11;;;;;;;8.98;4.38;;;13.40;91.00;;;;;;4975174;28;20054;-71
2024/03/09 05:52:37;;;;;;;8.60;4.75;;;13.30;90.90;;;;;;4974815;28;20442;-72
2024/03/09 05:55:06;;;;;;;8.07;4.63;;;13.20;91.00;;;;;;4974792;28;20043;-71
2024/03/09 05:57:31;;;;;;;8.50;4.63;;;13.30;91.00;;;;;;4974793;28;20034;-72
2024/03/09 05:59:57;;;;;;;13.30;4.60;;;13.30;90.90;;;;;;4974862;28;20069;-71
2024/03/09 06:02:23;;;;;;;11.25;4.85;;;13.40;91.00;;;;;;4974765;28;20046;-71
2024/03/09 06:04:48;;;;;;;9.40;4.85;;;13.40;91.10;;;;;;4974533;28;20043;-72
2024/03/09 06:07:14;;;;;;;11.55;5.15;;;13.50;91.10;;;;;;4974488;28;20035;-72
2024/03/09 06:09:39;;;;;;;8.50;4.18;;;13.40;91.20;;;;;;4974548;28;20113;-73
2024/03/09 06:12:05;;;;;;;11.70;4.80;;;13.40;91.30;;;;;;4974926;28;20038;-71
2024/03/09 06:14:31;;;;;;;8.52;4.63;;;13.40;91.40;;;;;;4974446;28;20358;-72
2024/03/09 06:16:57;;;;;;;12.50;5.00;;;13.30;91.50;;;;;;4974162;28;20051;-72
2024/03/09 06:19:23;;;;;;;11.00;5.80;;;13.20;91.40;;;;;;4974375;28;20631;-71
2024/03/09 06:21:51;;;;;;;9.20;5.28;;;13.00;91.60;;;;;;4974513;28;20035;-73
2024/03/09 06:24:17;;;;;;;9.85;5.40;;;12.90;91.60;;;;;;4975434;28;20034;-71
2024/03/09 06:26:43;;;;;;;10.27;4.97;;;12.80;91.60;;;;;;4975160;28;20035;-72
2024/03/09 06:29:10;;;;;;;9.13;4.53;;;12.80;91.80;;;;;;4974428;28;20435;-73
2024/03/09 06:31:36;;;;;;;9.77;4.80;;;12.80;91.90;;;;;;4973629;28;20167;-72
2024/03/09 06:34:02;;;;;;;10.35;4.80;;;12.90;91.80;;;;;;4974189;28;20539;-72
2024/03/09 06:36:28;;;;;;;9.50;5.10;;;13.00;91.90;;;;;;4974235;28;20416;-72
2024/03/09 06:38:55;;;;;;;10.80;5.07;;;13.10;91.90;;;;;;4974059;28;20114;-74
2024/03/09 06:41:20;;;;;;;10.25;6.00;;;13.10;92.00;;;;;;4973728;28;20503;-72
2024/03/09 06:43:46;;;;;;;9.65;5.03;;;13.10;91.90;;;;;;4973841;28;20023;-72
2024/03/09 06:46:14;;;;;;;9.68;4.88;;;13.10;92.10;;;;;;4974017;28;20042;-72
2024/03/09 06:48:40;;;;;;;10.07;4.50;;;13.20;92.20;;;;;;4974100;28;20035;-71
2024/03/09 06:51:06;;;;;;;12.68;6.55;;;13.20;92.40;;;;;;4973758;28;20419;-72
2024/03/09 06:53:32;;;;;;;8.85;4.70;;;13.30;92.40;;;;;;4973692;28;20506;-71
2024/03/09 06:56:03;;;;;;;12.52;5.55;;;13.30;92.20;;;;;;4973427;28;20039;-72
2024/03/09 06:58:29;;;;;;;10.35;5.40;;;13.30;92.40;;;;;;4956342;28;20030;-72
2024/03/09 07:00:54;;;;;;;11.50;7.22;;;13.30;92.40;;;;;;4973629;28;20353;-72
2024/03/09 07:03:20;;;;;;;11.43;5.28;;;13.30;92.30;;;;;;4973563;28;20045;-72
2024/03/09 07:05:46;;;;;;;11.82;5.80;;;13.30;92.50;;;;;;4973624;28;20118;-72
2024/03/09 07:08:16;;;;;;;13.25;5.95;;;13.30;92.60;;;;;;4973674;28;20145;-72
2024/03/09 07:10:41;;;;;;;12.38;5.45;;;13.30;92.80;;;;;;4973190;28;20102;-72
2024/03/09 07:13:09;;;;;;;9.55;5.97;;;13.30;92.80;;;;;;4973378;28;20039;-71
2024/03/09 07:15:36;;;;;;;11.45;6.50;;;13.30;93.00;;;;;;4973166;28;20129;-70
2024/03/09 07:18:02;;;;;;;15.57;8.85;;;13.30;92.90;;;;;;4973263;28;20027;-71
2024/03/09 07:20:31;;;;;;;14.40;5.90;;;13.30;93.10;;;;;;4973427;28;20035;-73
2024/03/09 07:22:56;;;;;;;14.52;7.65;;;13.30;93.00;;;;;;4973195;28;20049;-72
2024/03/09 07:25:24;;;;;;;14.63;7.95;;;13.30;93.10;;;;;;4973262;28;20043;-72
2024/03/09 07:27:54;;;;;;;13.32;6.80;;;13.30;93.20;;;;;;4973317;28;20035;-72
2024/03/09 07:30:21;;;;;;;12.27;6.22;;;13.40;93.20;;;;;;4973389;28;20031;-72
2024/03/09 07:32:50;;;;;;;10.93;5.80;;;13.30;93.20;;;;;;4973056;28;20035;-73
2024/03/09 07:35:20;;;;;;;15.75;5.93;;;13.30;93.30;;;;;;4973127;28;20053;-70
2024/03/09 07:38:00;;;;;;;7.50;4.13;;;13.40;93.30;;;;;;4973195;28;20034;-72
2024/03/09 07:40:29;;;;;;;10.75;4.07;;;13.50;93.20;;;;;;4973473;28;20055;-74
2024/03/09 07:42:55;;;;;;;8.20;3.90;;;13.60;93.30;;;;;;4973474;28;20074;-72
2024/03/09 07:45:26;;;;;;;11.93;4.05;;;13.70;93.40;;;;;;4973001;28;20379;-72
2024/03/09 07:47:52;;;;;;;11.40;4.25;;;13.80;93.50;;;;;;4973022;28;20030;-72
2024/03/09 07:50:21;;;;;;;8.88;4.00;;;13.80;93.60;;;;;;4973080;28;20067;-72
2024/03/09 07:52:53;;;;;;;8.27;4.05;;;13.80;93.60;;;;;;4973239;28;20023;-74
2024/03/09 07:55:20;;;;;;;10.13;4.18;;;13.90;93.80;;;;;;4973623;28;20097;-69
2024/03/09 07:57:52;;;;;;;9.10;4.47;;;13.90;94.00;;;;;;4973451;28;20073;-69
2024/03/09 08:00:27;;;;;;;11.93;5.47;;;14.00;94.00;;;;;;4973096;28;20035;-69
2024/03/09 08:02:59;;;;;;;7.95;4.32;;;14.00;94.10;;;;;;4973178;28;20086;-68
2024/03/09 08:05:26;;;;;;;10.10;5.00;;;14.00;93.90;;;;;;4973420;28;20035;-69
2024/03/09 08:07:52;;;;;;;11.20;5.65;;;14.00;94.20;;;;;;4973110;28;20041;-69
2024/03/09 08:10:25;;;;;;;12.95;5.50;;;14.00;94.30;;;;;;4973280;28;20197;-69
2024/03/09 08:12:53;;;;;;;13.77;5.97;;;14.00;94.10;;;;;;4973166;28;20098;-70
2024/03/09 08:15:19;;;;;;;11.52;5.43;;;14.00;94.40;;;;;;4972924;28;20035;-70
2024/03/09 08:17:49;;;;;;;10.50;5.15;;;14.00;94.60;;;;;;4972886;28;20061;-80
2024/03/09 08:20:15;;;;;;;13.40;6.35;;;14.00;94.50;;;;;;4973143;28;20031;-79
2024/03/09 08:22:42;;;;;;;14.55;4.95;;;14.00;94.70;;;;;;4973191;28;20097;-77
2024/03/09 08:25:12;;;;;;;12.73;4.70;;;14.10;94.80;;;;;;4973683;28;20130;-82
2024/03/09 08:27:40;;;;;;;10.70;4.53;;;14.10;94.40;;;;;;4973331;28;20422;-74
2024/03/09 08:30:07;;;;;;;12.65;4.80;;;14.20;94.80;;;;;;4972742;28;20038;-71
2024/03/09 08:32:36;;;;;;;13.27;5.10;;;14.30;94.60;;;;;;4977138;28;20030;-74
2024/03/09 08:35:08;;;;;;;13.43;4.45;;;14.30;94.70;;;;;;4966552;28;20054;-73
2024/03/09 08:37:41;;;;;;;9.98;4.40;;;14.40;94.70;;;;;;4992247;28;20375;-72
2024/03/09 08:40:08;;;;;;;15.88;4.68;;;14.40;94.70;;;;;;4981689;28;20030;-73
2024/03/09 08:42:34;;;;;;;11.52;4.82;;;14.40;94.60;;;;;;4981424;28;20034;-73
2024/03/09 08:45:01;;;;;;;10.35;4.55;;;14.40;94.60;;;;;;4983225;28;20038;-71
2024/03/09 08:47:28;;;;;;;14.32;4.47;;;14.40;94.60;;;;;;4982202;28;20041;-73
2024/03/09 08:49:54;;;;;;;11.77;4.32;;;14.50;94.60;;;;;;4986302;28;20455;-74
2024/03/09 08:52:20;;;;;;;10.13;3.75;;;14.50;94.60;;;;;;4992066;28;20123;-74
2024/03/09 08:54:47;;;;;;;8.88;3.60;;;14.50;94.60;;;;;;4992239;28;20495;-68
2024/03/09 08:57:12;;;;;;;9.25;3.90;;;14.50;94.50;;;;;;4995949;28;20116;-73
2024/03/09 08:59:46;;;;;;;14.38;4.30;;;14.50;94.50;;;;;;4987859;28;20062;-70
2024/03/09 09:02:11;;;;;;;6.28;2.70;;;14.50;94.70;;;;;;4982478;28;20030;-71
2024/03/09 09:04:37;;;;;;;10.10;4.50;;;14.50;94.50;;;;;;4986806;28;20027;-71
2024/03/09 09:07:06;;;;;;;12.65;4.32;;;14.50;94.60;;;;;;4985085;28;20030;-73
2024/03/09 09:09:31;;;;;;;13.88;4.10;;;14.50;94.60;;;;;;4989551;28;20450;-72
2024/03/09 09:11:59;;;;;;;10.88;4.20;;;14.50;94.80;;;;;;4995334;28;20035;-72
2024/03/09 09:14:26;;;;;;;10.65;3.92;;;14.40;94.80;;;;;;4989621;28;20046;-71
2024/03/09 09:16:53;;;;;;;12.65;4.10;;;14.50;94.80;;;;;;4995392;28;20161;-71
2024/03/09 09:19:20;;;;;;;12.35;3.92;;;14.50;94.70;;;;;;4995124;28;20026;-71
2024/03/09 09:21:46;;;;;;;11.90;4.18;;;14.50;94.80;;;;;;4995346;28;20070;-71
2024/03/09 09:24:11;;;;;;;10.75;3.92;;;14.50;94.70;;;;;;4995263;28;20065;-70
2024/03/09 09:26:37;;;;;;;12.35;5.30;;;14.60;94.70;;;;;;4994976;28;20566;-71
2024/03/09 09:29:04;;;;;;;12.95;5.55;;;14.60;94.70;;;;;;4995088;28;20081;-73
2024/03/09 09:31:32;;;;;;;10.18;4.35;;;14.70;94.70;;;;;;4994976;28;20030;-71
2024/03/09 09:33:58;;;;;;;14.13;4.30;;;14.70;94.70;;;;;;4994845;28;20039;-72
2024/03/09 09:36:26;;;;;;;10.75;3.92;;;14.70;94.70;;;;;;4981919;28;20109;-76
2024/03/09 09:38:52;;;;;;;9.43;3.70;;;14.70;94.70;;;;;;4975386;28;20031;-72
2024/03/09 09:41:18;;;;;;;11.57;3.55;;;14.70;94.50;;;;;;4975369;28;20455;-75
2024/03/09 09:43:48;;;;;;;11.55;3.47;;;14.70;94.60;;;;;;4975421;28;20031;-73
2024/03/09 09:46:14;;;;;;;9.32;3.45;;;14.80;94.60;;;;;;4975485;28;20033;-73
2024/03/09 09:48:40;;;;;;;9.15;2.88;;;14.80;94.40;;;;;;4977946;28;20054;-74
2024/03/09 09:51:06;;;;;;;9.70;3.22;;;14.80;94.50;;;;;;4975171;28;20398;-76
2024/03/09 09:53:32;;;;;;;11.50;3.38;;;14.80;94.40;;;;;;4975040;28;20045;-73
2024/03/09 09:55:59;;;;;;;8.02;2.80;;;14.90;94.30;;;;;;4974888;28;20395;-75
2024/03/09 09:58:25;;;;;;;7.25;2.67;;;14.80;94.20;;;;;;4975070;28;20443;-74
2024/03/09 10:00:53;;;;;;;8.90;3.63;;;14.90;94.30;;;;;;4975282;28;20027;-74
2024/03/09 10:03:21;;;;;;;8.40;3.30;;;15.00;94.30;;;;;;4975688;28;20089;-74
2024/03/09 10:05:47;;;;;;;7.88;3.15;;;15.10;94.10;;;;;;4974964;28;20035;-73
2024/03/09 10:08:14;;;;;;;7.85;2.80;;;15.10;94.00;;;;;;4974307;28;20055;-74
2024/03/09 10:10:47;;;;;;;6.90;3.10;;;15.20;93.90;;;;;;4974171;28;20130;-73
2024/03/09 10:13:17;;;;;;;8.18;3.13;;;15.30;93.80;;;;;;4974849;28;20506;-73
